Station History

Weather Underground - logo

Station Historical Data
Daily Summary for November 1, 2017 Units:  English    Metric   Both
« Previous Day
Next Day »
Daily Weekly Monthly Yearly Custom
  High: Low: Average:
Temperature: 69.5 °F 44.3 °F 56.2 °F
Dew Point: 53.2 °F 42.7 °F 49 °F
Humidity: 96 % 53 % 79 %
Wind Speed: 4.0 mph 0.0 mph 0.5 mph
Wind Gust: 4.0 mph - -
Wind:- - West
Pressure: 29.99 in 29.88 in -
Precipitation: 0.00 in    
Historical Graphs
 
 
Tabular Data for November 1, 2017
Time Temperature Dew Point Pressure Wind Wind Speed Wind Gust Humidity Rainfall Rate (Hourly)
00:04 49.2 °F 47.0 °F 29.94 in Calm     92 % 0.00 in
00:09 49.0 °F 46.5 °F 29.94 in Calm     91 % 0.00 in
00:14 49.0 °F 46.5 °F 29.94 in Calm     91 % 0.00 in
00:19 49.0 °F 46.5 °F 29.94 in Calm     91 % 0.00 in
00:24 48.8 °F 46.3 °F 29.94 in Calm     91 % 0.00 in
00:29 48.5 °F 46.0 °F 29.94 in Calm     91 % 0.00 in
00:34 48.5 °F 46.0 °F 29.94 in Calm     91 % 0.00 in
00:39 48.4 °F 45.9 °F 29.94 in Calm     91 % 0.00 in
00:44 48.3 °F 46.1 °F 29.95 in Calm     92 % 0.00 in
00:49 48.2 °F 46.0 °F 29.94 in Calm     92 % 0.00 in
00:54 48.3 °F 46.1 °F 29.94 in Calm     92 % 0.00 in
00:59 48.2 °F 46.0 °F 29.94 in Calm     92 % 0.00 in
01:04 48.1 °F 45.9 °F 29.94 in Calm     92 % 0.00 in
01:09 48.2 °F 46.3 °F 29.94 in WNW 1.2 mph   93 % 0.00 in
01:14 48.2 °F 46.0 °F 29.94 in Calm     92 % 0.00 in
01:19 48.1 °F 45.9 °F 29.94 in Calm     92 % 0.00 in
01:24 48.1 °F 46.2 °F 29.94 in Calm     93 % 0.00 in
01:29 48.1 °F 45.9 °F 29.94 in Calm     92 % 0.00 in
01:34 48.2 °F 46.3 °F 29.94 in Calm     93 % 0.00 in
01:39 48.1 °F 46.2 °F 29.94 in Calm     93 % 0.00 in
01:44 48.0 °F 46.1 °F 29.94 in Calm     93 % 0.00 in
01:49 47.8 °F 45.6 °F 29.94 in Calm     92 % 0.00 in
01:54 47.7 °F 45.5 °F 29.94 in Calm     92 % 0.00 in
01:59 47.5 °F 45.3 °F 29.94 in Calm     92 % 0.00 in
02:04 47.4 °F 45.5 °F 29.94 in Calm     93 % 0.00 in
02:09 47.3 °F 45.4 °F 29.94 in Calm     93 % 0.00 in
02:14 47.2 °F 45.3 °F 29.94 in Calm     93 % 0.00 in
02:19 47.2 °F 45.3 °F 29.94 in Calm     93 % 0.00 in
02:24 47.0 °F 45.1 °F 29.94 in Calm     93 % 0.00 in
02:29 46.9 °F 45.0 °F 29.94 in Calm     93 % 0.00 in
02:34 46.8 °F 44.9 °F 29.95 in Calm     93 % 0.00 in
02:39 46.6 °F 44.4 °F 29.95 in Calm     92 % 0.00 in
02:44 46.4 °F 44.2 °F 29.95 in Calm     92 % 0.00 in
02:50 46.3 °F 44.4 °F 29.95 in Calm     93 % 0.00 in
02:55 46.4 °F 44.5 °F 29.95 in Calm     93 % 0.00 in
03:00 46.4 °F 44.5 °F 29.95 in Calm     93 % 0.00 in
03:05 46.4 °F 44.5 °F 29.95 in Calm     93 % 0.00 in
03:10 46.1 °F 44.2 °F 29.95 in Calm     93 % 0.00 in
03:15 46.1 °F 44.2 °F 29.95 in Calm     93 % 0.00 in
03:20 46.2 °F 44.3 °F 29.95 in Calm     93 % 0.00 in
03:25 46.2 °F 44.6 °F 29.95 in Calm     94 % 0.00 in
03:30 46.5 °F 44.9 °F 29.95 in Calm     94 % 0.00 in
03:35 46.5 °F 44.9 °F 29.95 in Calm     94 % 0.00 in
03:40 46.6 °F 45.0 °F 29.95 in Calm     94 % 0.00 in
03:45 46.6 °F 45.0 °F 29.95 in Calm     94 % 0.00 in
03:50 46.5 °F 44.9 °F 29.95 in Calm     94 % 0.00 in
03:55 46.4 °F 44.5 °F 29.95 in Calm     93 % 0.00 in
04:00 46.3 °F 44.4 °F 29.95 in Calm     93 % 0.00 in
04:05 46.1 °F 44.2 °F 29.95 in Calm     93 % 0.00 in
04:10 46.0 °F 44.4 °F 29.95 in Calm     94 % 0.00 in
04:15 46.1 °F 44.5 °F 29.95 in Calm     94 % 0.00 in
04:20 46.0 °F 44.4 °F 29.96 in Calm     94 % 0.00 in
04:25 46.1 °F 44.5 °F 29.96 in Calm     94 % 0.00 in
04:30 46.1 °F 44.5 °F 29.96 in Calm     94 % 0.00 in
04:35 46.2 °F 44.6 °F 29.96 in Calm     94 % 0.00 in
04:40 46.5 °F 45.1 °F 29.96 in Calm     95 % 0.00 in
04:45 46.7 °F 45.1 °F 29.95 in Calm     94 % 0.00 in
04:50 46.7 °F 45.1 °F 29.95 in Calm     94 % 0.00 in
04:55 46.6 °F 45.0 °F 29.95 in Calm     94 % 0.00 in
05:00 46.5 °F 44.9 °F 29.95 in Calm     94 % 0.00 in
05:05 46.5 °F 44.9 °F 29.95 in Calm     94 % 0.00 in
05:10 46.5 °F 44.9 °F 29.95 in Calm     94 % 0.00 in
05:15 46.7 °F 45.1 °F 29.95 in Calm     94 % 0.00 in
05:20 46.8 °F 45.2 °F 29.95 in Calm     94 % 0.00 in
05:25 47.0 °F 45.4 °F 29.95 in Calm     94 % 0.00 in
05:30 46.9 °F 45.3 °F 29.95 in Calm     94 % 0.00 in
05:35 46.8 °F 45.2 °F 29.95 in Calm     94 % 0.00 in
05:40 46.5 °F 44.9 °F 29.96 in Calm     94 % 0.00 in
05:45 46.3 °F 44.7 °F 29.96 in Calm     94 % 0.00 in
05:50 46.1 °F 44.2 °F 29.96 in Calm     93 % 0.00 in
05:55 45.6 °F 43.7 °F 29.96 in Calm     93 % 0.00 in
06:00 45.3 °F 43.4 °F 29.96 in Calm     93 % 0.00 in
06:05 45.1 °F 43.2 °F 29.96 in Calm     93 % 0.00 in
06:10 45.5 °F 43.9 °F 29.96 in Calm     94 % 0.00 in
06:15 45.8 °F 44.4 °F 29.96 in Calm     95 % 0.00 in
06:20 45.6 °F 44.0 °F 29.96 in Calm     94 % 0.00 in
06:25 45.4 °F 43.8 °F 29.96 in Calm     94 % 0.00 in
06:30 45.3 °F 43.7 °F 29.96 in Calm     94 % 0.00 in
06:35 45.1 °F 43.5 °F 29.96 in Calm     94 % 0.00 in
06:40 45.1 °F 43.5 °F 29.96 in Calm     94 % 0.00 in
06:45 45.1 °F 43.5 °F 29.96 in Calm     94 % 0.00 in
06:50 44.9 °F 43.3 °F 29.96 in Calm     94 % 0.00 in
06:55 44.8 °F 43.2 °F 29.96 in Calm     94 % 0.00 in
07:00 44.7 °F 43.1 °F 29.96 in Calm     94 % 0.00 in
07:05 44.5 °F 42.9 °F 29.96 in Calm     94 % 0.00 in
07:10 44.4 °F 42.8 °F 29.96 in Calm     94 % 0.00 in
07:15 44.3 °F 42.7 °F 29.96 in Calm     94 % 0.00 in
07:20 44.5 °F 42.9 °F 29.96 in Calm     94 % 0.00 in
07:25 44.7 °F 43.4 °F 29.96 in Calm     95 % 0.00 in
07:31 44.9 °F 43.6 °F 29.96 in Calm     95 % 0.00 in
07:36 45.0 °F 43.7 °F 29.96 in Calm     95 % 0.00 in
07:41 45.0 °F 43.7 °F 29.97 in Calm     95 % 0.00 in
07:46 45.2 °F 43.9 °F 29.97 in Calm     95 % 0.00 in
07:51 45.4 °F 44.1 °F 29.97 in Calm     95 % 0.00 in
07:56 45.5 °F 44.2 °F 29.97 in Calm     95 % 0.00 in
08:01 45.6 °F 44.3 °F 29.97 in Calm     95 % 0.00 in
08:06 45.9 °F 44.5 °F 29.97 in Calm     95 % 0.00 in
08:11 46.1 °F 44.7 °F 29.97 in Calm     95 % 0.00 in
08:16 46.4 °F 45.0 °F 29.98 in Calm     95 % 0.00 in
08:21 47.3 °F 46.2 °F 29.98 in Calm     96 % 0.00 in
08:26 49.0 °F 47.9 °F 29.98 in Calm     96 % 0.00 in
08:31 49.9 °F 48.8 °F 29.98 in Calm     96 % 0.00 in
08:36 51.3 °F 50.2 °F 29.98 in Calm     96 % 0.00 in
08:41 52.6 °F 51.2 °F 29.98 in Calm     95 % 0.00 in
08:46 53.6 °F 50.1 °F 29.98 in Calm     88 % 0.00 in
08:51 54.0 °F 50.2 °F 29.98 in Calm     87 % 0.00 in
08:56 55.0 °F 50.6 °F 29.98 in Calm     85 % 0.00 in
09:01 55.9 °F 51.1 °F 29.98 in Calm     84 % 0.00 in
09:06 56.6 °F 50.8 °F 29.98 in Calm     81 % 0.00 in
09:11 56.7 °F 51.3 °F 29.98 in Calm     82 % 0.00 in
09:16 57.4 °F 51.3 °F 29.99 in Calm     80 % 0.00 in
09:21 57.6 °F 50.8 °F 29.98 in Calm     78 % 0.00 in
09:26 57.5 °F 51.4 °F 29.98 in Calm     80 % 0.00 in
09:31 58.2 °F 51.4 °F 29.99 in Calm     78 % 0.00 in
09:36 58.6 °F 51.4 °F 29.99 in SE 1.2 mph   77 % 0.00 in
09:41 59.3 °F 52.4 °F 29.99 in Calm     78 % 0.00 in
09:46 59.9 °F 52.0 °F 29.98 in Calm     75 % 0.00 in
09:51 60.0 °F 51.7 °F 29.98 in SE 1.2 mph   74 % 0.00 in
09:56 60.5 °F 52.2 °F 29.98 in Calm     74 % 0.00 in
10:01 61.0 °F 52.3 °F 29.98 in Calm   0.1 mph 73 % 0.00 in
10:06 61.3 °F 52.2 °F 29.98 in Calm   0.1 mph 72 % 0.00 in
10:11 61.4 °F 52.3 °F 29.98 in ESE 2.3 mph 2.3 mph 72 % 0.00 in
10:16 61.7 °F 52.6 °F 29.98 in South 1.2 mph   72 % 0.00 in
10:21 62.3 °F 52.8 °F 29.98 in Calm     71 % 0.00 in
10:26 62.6 °F 52.3 °F 29.98 in North 1.2 mph   69 % 0.00 in
10:31 62.9 °F 52.2 °F 29.98 in SSE 1.2 mph   68 % 0.00 in
10:36 63.1 °F 52.0 °F 29.98 in ENE 2.0 mph 2.0 mph 67 % 0.00 in
10:41 63.1 °F 52.0 °F 29.97 in ESE 2.3 mph 2.3 mph 67 % 0.00 in
10:46 63.3 °F 53.0 °F 29.97 in Calm     69 % 0.00 in
10:51 63.9 °F 53.1 °F 29.97 in SSE 1.2 mph 1.2 mph 68 % 0.00 in
10:56 64.4 °F 52.4 °F 29.97 in SW 1.2 mph 1.2 mph 65 % 0.00 in
11:01 64.3 °F 51.9 °F 29.97 in NE 2.3 mph 2.3 mph 64 % 0.00 in
11:07 64.2 °F 51.8 °F 29.97 in Calm     64 % 0.00 in
11:12 64.7 °F 52.7 °F 29.97 in North 1.2 mph   65 % 0.00 in
11:17 64.6 °F 51.3 °F 29.97 in NNW 1.2 mph 1.2 mph 62 % 0.00 in
11:22 64.6 °F 51.3 °F 29.97 in SE 1.0 mph 1.0 mph 62 % 0.00 in
11:27 64.8 °F 52.3 °F 29.97 in NW 1.2 mph 1.2 mph 64 % 0.00 in
11:32 65.0 °F 51.7 °F 29.97 in North 1.2 mph 1.2 mph 62 % 0.00 in
11:33 65.0 °F 52.1 °F 29.97 in Calm     63 % 0.00 in
11:38 65.3 °F 51.5 °F 29.97 in NW 2.0 mph 2.0 mph 61 % 0.00 in
11:43 65.3 °F 51.9 °F 29.97 in WNW 1.2 mph 1.2 mph 62 % 0.00 in
11:48 65.3 °F 51.5 °F 29.97 in NW 1.2 mph 1.2 mph 61 % 0.00 in
11:53 65.4 °F 52.0 °F 29.96 in West 1.2 mph 1.2 mph 62 % 0.00 in
11:58 65.7 °F 51.9 °F 29.96 in NNW 1.2 mph 1.2 mph 61 % 0.00 in
12:03 65.7 °F 51.9 °F 29.96 in NNW 1.2 mph 1.2 mph 61 % 0.00 in
12:08 66.1 °F 51.8 °F 29.96 in NNW 2.3 mph 2.3 mph 60 % 0.00 in
12:13 66.4 °F 51.6 °F 29.95 in WNW 1.2 mph 1.2 mph 59 % 0.00 in
12:18 66.9 °F 51.6 °F 29.95 in SSE 1.2 mph   58 % 0.00 in
12:23 67.1 °F 51.4 °F 29.95 in NW 2.3 mph 2.3 mph 57 % 0.00 in
12:28 66.9 °F 51.6 °F 29.95 in NW 1.2 mph 1.2 mph 58 % 0.00 in
12:33 66.9 °F 52.1 °F 29.95 in NW 2.3 mph 2.3 mph 59 % 0.00 in
12:38 67.2 °F 51.4 °F 29.94 in NNW 2.3 mph 2.3 mph 57 % 0.00 in
12:43 67.4 °F 51.6 °F 29.94 in SW 2.3 mph 2.3 mph 57 % 0.00 in
12:49 67.6 °F 51.8 °F 29.94 in NW 1.2 mph 1.2 mph 57 % 0.00 in
12:54 67.6 °F 51.3 °F 29.93 in NW 2.0 mph 2.0 mph 56 % 0.00 in
12:59 67.8 °F 52.0 °F 29.93 in WNW 1.2 mph 1.2 mph 57 % 0.00 in
13:04 67.9 °F 51.6 °F 29.93 in South 1.2 mph   56 % 0.00 in
13:09 68.6 °F 53.2 °F 29.93 in WNW 1.2 mph 1.2 mph 58 % 0.00 in
13:14 68.6 °F 51.8 °F 29.93 in NW 3.5 mph 3.5 mph 55 % 0.00 in
13:19 68.6 °F 52.3 °F 29.92 in North 1.2 mph 1.2 mph 56 % 0.00 in
13:24 68.6 °F 52.3 °F 29.92 in West 1.2 mph 1.2 mph 56 % 0.00 in
13:29 68.8 °F 51.5 °F 29.92 in Calm     54 % 0.00 in
13:34 68.8 °F 52.5 °F 29.92 in NW 3.0 mph 3.0 mph 56 % 0.00 in
13:39 68.5 °F 52.2 °F 29.92 in WNW 3.5 mph 3.5 mph 56 % 0.00 in
13:44 68.2 °F 51.4 °F 29.91 in Calm     55 % 0.00 in
13:49 68.5 °F 51.7 °F 29.91 in NW 1.2 mph 1.2 mph 55 % 0.00 in
13:54 68.6 °F 52.3 °F 29.91 in SSW 1.2 mph 1.2 mph 56 % 0.00 in
13:59 69.2 °F 51.3 °F 29.91 in West 1.2 mph   53 % 0.00 in
14:04 69.1 °F 52.2 °F 29.91 in NW 2.3 mph 2.3 mph 55 % 0.00 in
14:09 69.2 °F 51.8 °F 29.91 in NW 4.0 mph 4.0 mph 54 % 0.00 in
14:14 68.9 °F 51.1 °F 29.90 in NNW 1.2 mph 1.2 mph 53 % 0.00 in
14:19 69.2 °F 52.3 °F 29.90 in WNW 3.5 mph 3.5 mph 55 % 0.00 in
14:24 69.2 °F 52.3 °F 29.90 in NW 1.2 mph 1.2 mph 55 % 0.00 in
14:29 69.3 °F 51.9 °F 29.90 in Calm     54 % 0.00 in
14:34 69.2 °F 51.8 °F 29.90 in NW 2.3 mph 2.3 mph 54 % 0.00 in
14:39 69.1 °F 51.8 °F 29.90 in North 2.3 mph 2.3 mph 54 % 0.00 in
14:44 69.1 °F 51.8 °F 29.90 in NW 2.3 mph 2.3 mph 54 % 0.00 in
14:49 69.0 °F 51.7 °F 29.90 in NW 3.5 mph 3.5 mph 54 % 0.00 in
14:54 69.3 °F 51.9 °F 29.90 in NW 1.2 mph 1.2 mph 54 % 0.00 in
14:59 69.3 °F 51.9 °F 29.90 in NW 1.2 mph 1.2 mph 54 % 0.00 in
15:04 69.5 °F 52.6 °F 29.90 in SW 1.2 mph 1.2 mph 55 % 0.00 in
15:10 69.5 °F 51.6 °F 29.90 in NW 3.5 mph 3.5 mph 53 % 0.00 in
15:14 69.3 °F 51.9 °F 29.90 in WNW 1.2 mph 1.2 mph 54 % 0.00 in
15:19 69.5 °F 52.6 °F 29.90 in WNW 2.3 mph 2.3 mph 55 % 0.00 in
15:25 69.4 °F 51.5 °F 29.90 in WNW 2.3 mph 2.3 mph 53 % 0.00 in
15:30 69.4 °F 52.0 °F 29.89 in NW 3.5 mph 3.5 mph 54 % 0.00 in
15:35 69.2 °F 51.3 °F 29.90 in NNE 3.0 mph 3.0 mph 53 % 0.00 in
15:40 69.3 °F 51.4 °F 29.89 in Calm     53 % 0.00 in
15:45 69.1 °F 51.8 °F 29.89 in NW 2.3 mph 2.3 mph 54 % 0.00 in
15:50 69.2 °F 51.3 °F 29.89 in NW 1.2 mph 1.2 mph 53 % 0.00 in
15:55 69.0 °F 51.7 °F 29.89 in North 2.3 mph 2.3 mph 54 % 0.00 in
16:00 69.1 °F 52.2 °F 29.89 in NW 1.2 mph 1.2 mph 55 % 0.00 in
16:05 68.9 °F 51.6 °F 29.89 in NW 1.2 mph 1.2 mph 54 % 0.00 in
16:10 68.8 °F 51.5 °F 29.89 in NW 3.5 mph 3.5 mph 54 % 0.00 in
16:15 68.5 °F 51.7 °F 29.89 in WNW 1.2 mph 1.2 mph 55 % 0.00 in
16:20 68.4 °F 51.6 °F 29.89 in West 1.2 mph 1.2 mph 55 % 0.00 in
16:25 68.4 °F 51.6 °F 29.89 in WNW 1.2 mph 1.2 mph 55 % 0.00 in
16:30 68.3 °F 52.0 °F 29.89 in NW 1.0 mph 1.0 mph 56 % 0.00 in
16:35 68.1 °F 51.3 °F 29.89 in NNE 2.3 mph 2.3 mph 55 % 0.00 in
16:40 68.1 °F 51.3 °F 29.89 in NW 1.2 mph 1.2 mph 55 % 0.00 in
16:45 68.0 °F 51.7 °F 29.89 in WNW 2.3 mph 2.3 mph 56 % 0.00 in
16:50 67.9 °F 51.6 °F 29.89 in NNW 1.2 mph 1.2 mph 56 % 0.00 in
16:55 67.9 °F 51.6 °F 29.88 in WNW 1.2 mph 1.2 mph 56 % 0.00 in
17:00 67.8 °F 51.5 °F 29.88 in WNW 1.2 mph   56 % 0.00 in
17:05 67.7 °F 51.4 °F 29.88 in WNW 1.2 mph 1.2 mph 56 % 0.00 in
17:10 67.5 °F 51.7 °F 29.88 in Calm     57 % 0.00 in
17:15 67.3 °F 52.5 °F 29.88 in Calm     59 % 0.00 in
17:20 67.0 °F 52.2 °F 29.88 in West 1.2 mph 1.2 mph 59 % 0.00 in
17:25 66.7 °F 51.9 °F 29.88 in Calm     59 % 0.00 in
17:30 66.5 °F 52.2 °F 29.88 in Calm     60 % 0.00 in
17:39 66.0 °F 51.7 °F 29.88 in Calm     60 % 0.00 in
17:44 65.6 °F 51.8 °F 29.88 in Calm     61 % 0.00 in
17:49 65.2 °F 51.8 °F 29.88 in Calm     62 % 0.00 in
17:54 64.8 °F 51.9 °F 29.88 in Calm     63 % 0.00 in
17:59 64.3 °F 52.3 °F 29.88 in Calm     65 % 0.00 in
18:04 63.7 °F 52.5 °F 29.88 in Calm     67 % 0.00 in
18:09 63.1 °F 52.8 °F 29.88 in Calm     69 % 0.00 in
18:14 62.4 °F 52.5 °F 29.88 in Calm     70 % 0.00 in
18:19 61.9 °F 52.4 °F 29.88 in Calm     71 % 0.00 in
18:24 61.4 °F 52.7 °F 29.88 in Calm     73 % 0.00 in
18:29 60.9 °F 52.6 °F 29.88 in Calm     74 % 0.00 in
18:34 60.4 °F 52.4 °F 29.88 in Calm     75 % 0.00 in
18:44 59.6 °F 52.4 °F 29.88 in Calm     77 % 0.00 in
18:49 59.2 °F 52.0 °F 29.88 in Calm     77 % 0.00 in
18:54 58.9 °F 52.1 °F 29.88 in Calm     78 % 0.00 in
18:59 58.6 °F 51.8 °F 29.89 in Calm     78 % 0.00 in
19:04 58.3 °F 51.8 °F 29.89 in Calm     79 % 0.00 in
19:10 58.0 °F 51.9 °F 29.89 in Calm     80 % 0.00 in
19:15 57.8 °F 51.7 °F 29.89 in Calm     80 % 0.00 in
19:20 57.5 °F 51.7 °F 29.89 in Calm     81 % 0.00 in
19:25 57.4 °F 51.9 °F 29.89 in Calm     82 % 0.00 in
19:30 57.2 °F 51.4 °F 29.89 in Calm     81 % 0.00 in
19:35 57.2 °F 51.8 °F 29.90 in Calm     82 % 0.00 in
19:40 57.0 °F 51.6 °F 29.90 in Calm     82 % 0.00 in
19:45 56.9 °F 51.5 °F 29.90 in Calm     82 % 0.00 in
19:50 56.8 °F 51.7 °F 29.90 in Calm     83 % 0.00 in
19:55 56.8 °F 51.4 °F 29.90 in Calm     82 % 0.00 in
20:00 56.8 °F 51.4 °F 29.90 in Calm     82 % 0.00 in
20:05 56.7 °F 51.6 °F 29.90 in Calm     83 % 0.00 in
20:10 56.5 °F 51.1 °F 29.91 in Calm     82 % 0.00 in
20:15 56.3 °F 51.5 °F 29.91 in Calm     84 % 0.00 in
20:20 56.1 °F 51.3 °F 29.91 in Calm     84 % 0.00 in
20:21 56.1 °F 51.3 °F 29.91 in Calm     84 % 0.00 in
20:26 55.9 °F 51.1 °F 29.91 in Calm     84 % 0.00 in
20:31 55.7 °F 51.3 °F 29.91 in Calm     85 % 0.00 in
20:36 55.5 °F 51.1 °F 29.91 in Calm     85 % 0.00 in
20:41 55.4 °F 51.3 °F 29.91 in Calm     86 % 0.00 in
20:46 55.5 °F 51.4 °F 29.91 in Calm     86 % 0.00 in
20:51 55.7 °F 51.6 °F 29.92 in Calm     86 % 0.00 in
20:56 55.7 °F 51.3 °F 29.92 in Calm     85 % 0.00 in
21:01 55.6 °F 51.2 °F 29.92 in Calm     85 % 0.00 in
21:06 55.5 °F 51.1 °F 29.92 in Calm     85 % 0.00 in
21:11 55.3 °F 50.9 °F 29.92 in Calm     85 % 0.00 in
21:16 55.1 °F 51.0 °F 29.92 in Calm     86 % 0.00 in
21:21 54.9 °F 50.8 °F 29.92 in Calm     86 % 0.00 in
21:26 54.7 °F 50.6 °F 29.93 in Calm     86 % 0.00 in
21:31 54.5 °F 50.4 °F 29.93 in Calm     86 % 0.00 in
21:36 54.3 °F 50.2 °F 29.93 in Calm     86 % 0.00 in
21:41 54.1 °F 50.0 °F 29.93 in Calm     86 % 0.00 in
21:47 54.0 °F 50.2 °F 29.93 in Calm     87 % 0.00 in
21:52 54.1 °F 50.6 °F 29.93 in Calm     88 % 0.00 in
21:57 54.1 °F 50.3 °F 29.94 in Calm     87 % 0.00 in
22:02 54.0 °F 50.2 °F 29.94 in Calm     87 % 0.00 in
22:07 53.9 °F 50.1 °F 29.94 in Calm     87 % 0.00 in
22:12 53.7 °F 49.9 °F 29.94 in Calm     87 % 0.00 in
22:17 53.3 °F 49.2 °F 29.94 in Calm     86 % 0.00 in
22:22 52.8 °F 49.0 °F 29.94 in Calm     87 % 0.00 in
22:27 52.3 °F 48.5 °F 29.94 in Calm     87 % 0.00 in
22:32 51.9 °F 48.2 °F 29.95 in Calm     87 % 0.00 in
22:37 51.6 °F 48.2 °F 29.95 in Calm     88 % 0.00 in
22:42 51.4 °F 48.0 °F 29.95 in Calm     88 % 0.00 in
22:47 51.3 °F 48.2 °F 29.95 in Calm     89 % 0.00 in
22:52 51.3 °F 48.5 °F 29.95 in Calm     90 % 0.00 in
22:57 51.3 °F 48.5 °F 29.95 in Calm     90 % 0.00 in
23:02 51.3 °F 48.5 °F 29.95 in Calm     90 % 0.00 in
23:09 51.2 °F 48.4 °F 29.95 in Calm     90 % 0.00 in
23:14 51.2 °F 48.4 °F 29.95 in Calm     90 % 0.00 in
23:19 51.3 °F 48.8 °F 29.95 in Calm     91 % 0.00 in
23:24 51.2 °F 48.7 °F 29.95 in Calm     91 % 0.00 in
23:29 51.2 °F 48.7 °F 29.95 in Calm     91 % 0.00 in
23:34 51.1 °F 48.6 °F 29.95 in Calm     91 % 0.00 in
23:39 51.1 °F 48.6 °F 29.95 in Calm     91 % 0.00 in
23:44 50.9 °F 48.4 °F 29.95 in Calm     91 % 0.00 in
23:49 50.8 °F 48.3 °F 29.95 in Calm     91 % 0.00 in
23:54 50.6 °F 48.1 °F 29.95 in Calm     91 % 0.00 in
23:59 50.5 °F 48.0 °F 29.95 in Calm     91 % 0.00 in
Park Place, Exeter, Tulare County, California, USA
Compliments of Weather Underground - 2.75 mb